sensor_id;sensor_type;location;lat;lon;timestamp;P1;durP1;ratioP1;P2;durP2;ratioP2
15557;SDS011;7880;50.110;9.372;2022-08-25T00:02:19;2.830769230769231;;;2.530769230769231;;
15557;SDS011;7880;50.110;9.372;2022-08-25T00:07:24;4.06923076923077;;;2.7307692307692295;;
15557;SDS011;7880;50.110;9.372;2022-08-25T00:12:38;3.100000000000001;;;2.630769230769231;;
15557;SDS011;7880;50.110;9.372;2022-08-25T00:17:34;3.246153846153845;;;2.946153846153846;;
15557;SDS011;7880;50.110;9.372;2022-08-25T00:22:38;4.3999999999999995;;;3.7999999999999994;;
15557;SDS011;7880;50.110;9.372;2022-08-25T00:27:42;4.638461538461538;;;3.969230769230769;;
15557;SDS011;7880;50.110;9.372;2022-08-25T00:32:48;4.6000000000000005;;;3.8307692307692305;;
15557;SDS011;7880;50.110;9.372;2022-08-25T00:37:53;5.6692307692307695;;;4.569230769230769;;
15557;SDS011;7880;50.110;9.372;2022-08-25T00:42:55;9.007692307692306;;;5.1000000000000005;;
15557;SDS011;7880;50.110;9.372;2022-08-25T00:48:06;6.061538461538462;;;4.8999999999999995;;
15557;SDS011;7880;50.110;9.372;2022-08-25T00:53:11;7.93076923076923;;;5.061538461538462;;
15557;SDS011;7880;50.110;9.372;2022-08-25T00:58:15;8.5;;;6.13076923076923;;
15557;SDS011;7880;50.110;9.372;2022-08-25T01:03:13;9.530769230769229;;;5.761538461538463;;
15557;SDS011;7880;50.110;9.372;2022-08-25T01:08:27;7.669230769230769;;;6.669230769230769;;
15557;SDS011;7880;50.110;9.372;2022-08-25T01:13:53;8.669230769230769;;;7.06923076923077;;
15557;SDS011;7880;50.110;9.372;2022-08-25T01:18:45;7.599999999999999;;;6.299999999999998;;
15557;SDS011;7880;50.110;9.372;2022-08-25T01:23:41;8.938461538461539;;;6.700000000000002;;
15557;SDS011;7880;50.110;9.372;2022-08-25T01:29:20;11.130769230769229;;;8.63076923076923;;
15557;SDS011;7880;50.110;9.372;2022-08-25T01:34:04;11.130769230769229;;;8.63076923076923;;
15557;SDS011;7880;50.110;9.372;2022-08-25T01:39:02;12.030769230769229;;;7.599999999999999;;
15557;SDS011;7880;50.110;9.372;2022-08-25T01:44:07;8.799999999999999;;;6.93076923076923;;
15557;SDS011;7880;50.110;9.372;2022-08-25T01:49:11;7.969230769230771;;;6.030769230769229;;
15557;SDS011;7880;50.110;9.372;2022-08-25T01:54:17;9.638461538461538;;;7.169230769230769;;
15557;SDS011;7880;50.110;9.372;2022-08-25T01:59:20;9.976923076923075;;;8.26923076923077;;
15557;SDS011;7880;50.110;9.372;2022-08-25T02:04:23;7.93076923076923;;;5.3307692307692305;;
15557;SDS011;7880;50.110;9.372;2022-08-25T02:09:27;8.26923076923077;;;5.700000000000002;;
15557;SDS011;7880;50.110;9.372;2022-08-25T02:14:28;7.946153846153848;;;6.599999999999999;;
15557;SDS011;7880;50.110;9.372;2022-08-25T02:19:33;9.0;;;5.630769230769232;;
15557;SDS011;7880;50.110;9.372;2022-08-25T02:25:02;6.738461538461536;;;5.1000000000000005;;
15557;SDS011;7880;50.110;9.372;2022-08-25T02:29:42;5.561538461538462;;;4.961538461538461;;
15557;SDS011;7880;50.110;9.372;2022-08-25T02:34:45;5.884615384615385;;;5.130769230769232;;
15557;SDS011;7880;50.110;9.372;2022-08-25T02:39:49;7.561538461538462;;;5.700000000000002;;
15557;SDS011;7880;50.110;9.372;2022-08-25T02:44:55;7.900000000000001;;;6.330769230769231;;
15557;SDS011;7880;50.110;9.372;2022-08-25T02:49:58;6.43076923076923;;;5.730769230769231;;
15557;SDS011;7880;50.110;9.372;2022-08-25T02:55:04;7.799999999999998;;;6.169230769230769;;
15557;SDS011;7880;50.110;9.372;2022-08-25T03:00:09;7.099999999999999;;;6.299999999999998;;
15557;SDS011;7880;50.110;9.372;2022-08-25T03:05:13;8.330769230769231;;;6.130769230769232;;
15557;SDS011;7880;50.110;9.372;2022-08-25T03:10:15;8.723076923076924;;;6.799999999999998;;
15557;SDS011;7880;50.110;9.372;2022-08-25T03:15:21;6.43076923076923;;;5.8307692307692305;;
15557;SDS011;7880;50.110;9.372;2022-08-25T03:20:27;8.738461538461538;;;6.06923076923077;;
15557;SDS011;7880;50.110;9.372;2022-08-25T03:32:22;8.807692307692308;;;6.56923076923077;;
15557;SDS011;7880;50.110;9.372;2022-08-25T03:37:24;7.838461538461539;;;6.1;;
15557;SDS011;7880;50.110;9.372;2022-08-25T03:42:26;9.569230769230769;;;6.630769230769232;;
15557;SDS011;7880;50.110;9.372;2022-08-25T03:47:30;8.36923076923077;;;6.869230769230768;;
15557;SDS011;7880;50.110;9.372;2022-08-25T03:52:36;8.83846153846154;;;6.56923076923077;;
15557;SDS011;7880;50.110;9.372;2022-08-25T03:57:38;7.900000000000001;;;6.646153846153847;;
15557;SDS011;7880;50.110;9.372;2022-08-25T04:02:42;12.807692307692308;;;7.400000000000001;;
15557;SDS011;7880;50.110;9.372;2022-08-25T04:07:45;10.33076923076923;;;6.761538461538464;;
15557;SDS011;7880;50.110;9.372;2022-08-25T04:12:49;8.299999999999999;;;6.669230769230769;;
15557;SDS011;7880;50.110;9.372;2022-08-25T04:17:55;8.73076923076923;;;6.561538461538462;;
15557;SDS011;7880;50.110;9.372;2022-08-25T04:22:59;9.123076923076924;;;7.36153846153846;;
15557;SDS011;7880;50.110;9.372;2022-08-25T04:28:03;12.569230769230767;;;9.0;;
15557;SDS011;7880;50.110;9.372;2022-08-25T04:33:04;10.038461538461538;;;7.700000000000002;;
15557;SDS011;7880;50.110;9.372;2022-08-25T04:38:07;9.161538461538463;;;7.599999999999999;;
15557;SDS011;7880;50.110;9.372;2022-08-25T04:43:18;7.730769230769231;;;6.761538461538464;;
15557;SDS011;7880;50.110;9.372;2022-08-25T04:48:15;9.400000000000002;;;6.730769230769231;;
15557;SDS011;7880;50.110;9.372;2022-08-25T04:53:19;10.66923076923077;;;6.969230769230771;;
15557;SDS011;7880;50.110;9.372;2022-08-25T04:58:24;8.730769230769234;;;7.0;;
15557;SDS011;7880;50.110;9.372;2022-08-25T05:03:32;8.86923076923077;;;7.469230769230771;;
15557;SDS011;7880;50.110;9.372;2022-08-25T05:08:34;7.761538461538464;;;6.93076923076923;;
15557;SDS011;7880;50.110;9.372;2022-08-25T05:13:40;11.63846153846154;;;8.200000000000001;;
15557;SDS011;7880;50.110;9.372;2022-08-25T05:18:44;10.569230769230767;;;7.830769230769229;;
15557;SDS011;7880;50.110;9.372;2022-08-25T05:23:47;8.5;;;7.599999999999999;;
15557;SDS011;7880;50.110;9.372;2022-08-25T05:28:59;12.838461538461537;;;8.700000000000001;;
15557;SDS011;7880;50.110;9.372;2022-08-25T05:33:54;48.59230769230768;;;10.36153846153846;;
15557;SDS011;7880;50.110;9.372;2022-08-25T05:38:59;11.599999999999996;;;8.938461538461539;;
15557;SDS011;7880;50.110;9.372;2022-08-25T05:44:05;26.615384615384624;;;9.169230769230769;;
15557;SDS011;7880;50.110;9.372;2022-08-25T05:49:09;21.615384615384617;;;10.16923076923077;;
15557;SDS011;7880;50.110;9.372;2022-08-25T05:54:12;13.27692307692308;;;8.799999999999999;;
15557;SDS011;7880;50.110;9.372;2022-08-25T05:59:21;16.546153846153842;;;9.5;;
15557;SDS011;7880;50.110;9.372;2022-08-25T06:04:21;12.16923076923077;;;8.669230769230769;;
15557;SDS011;7880;50.110;9.372;2022-08-25T06:09:25;13.461538461538462;;;10.492307692307692;;
15557;SDS011;7880;50.110;9.372;2022-08-25T06:14:29;16.17692307692308;;;11.900000000000004;;
15557;SDS011;7880;50.110;9.372;2022-08-25T06:19:37;14.669230769230769;;;11.430769230769233;;
15557;SDS011;7880;50.110;9.372;2022-08-25T06:24:43;15.069230769230767;;;11.7;;
15557;SDS011;7880;50.110;9.372;2022-08-25T06:29:46;13.969230769230771;;;10.569230769230769;;
15557;SDS011;7880;50.110;9.372;2022-08-25T06:34:55;15.269230769230765;;;11.3;;
15557;SDS011;7880;50.110;9.372;2022-08-25T06:39:57;12.069230769230773;;;10.39230769230769;;
15557;SDS011;7880;50.110;9.372;2022-08-25T06:45:00;14.069230769230767;;;10.86153846153846;;
15557;SDS011;7880;50.110;9.372;2022-08-25T06:50:06;13.807692307692308;;;10.769230769230765;;
15557;SDS011;7880;50.110;9.372;2022-08-25T06:55:08;13.538461538461535;;;11.0;;
15557;SDS011;7880;50.110;9.372;2022-08-25T07:00:14;12.338461538461537;;;9.599999999999998;;
15557;SDS011;7880;50.110;9.372;2022-08-25T07:05:17;12.853846153846153;;;9.5;;
15557;SDS011;7880;50.110;9.372;2022-08-25T07:10:22;11.161538461538461;;;9.961538461538462;;
15557;SDS011;7880;50.110;9.372;2022-08-25T07:15:25;12.192307692307692;;;8.861538461538462;;
15557;SDS011;7880;50.110;9.372;2022-08-25T07:20:35;13.584615384615386;;;9.546153846153846;;
15557;SDS011;7880;50.110;9.372;2022-08-25T07:25:38;10.16923076923077;;;9.0;;
15557;SDS011;7880;50.110;9.372;2022-08-25T07:30:42;8.700000000000001;;;7.799999999999998;;
15557;SDS011;7880;50.110;9.372;2022-08-25T07:35:47;9.507692307692308;;;8.507692307692306;;
15557;SDS011;7880;50.110;9.372;2022-08-25T07:40:59;10.93846153846154;;;8.169230769230769;;
15557;SDS011;7880;50.110;9.372;2022-08-25T07:45:54;8.169230769230769;;;7.369230769230768;;
15557;SDS011;7880;50.110;9.372;2022-08-25T07:50:58;10.461538461538462;;;7.799999999999998;;
15557;SDS011;7880;50.110;9.372;2022-08-25T07:56:07;8.830769230769231;;;7.93076923076923;;
15557;SDS011;7880;50.110;9.372;2022-08-25T08:01:11;8.153846153846157;;;7.353846153846155;;
15557;SDS011;7880;50.110;9.372;2022-08-25T08:06:12;9.269230769230768;;;6.900000000000001;;
15557;SDS011;7880;50.110;9.372;2022-08-25T08:11:16;7.599999999999999;;;6.900000000000001;;
15557;SDS011;7880;50.110;9.372;2022-08-25T08:16:22;9.900000000000002;;;7.169230769230769;;
15557;SDS011;7880;50.110;9.372;2022-08-25T08:21:28;8.200000000000001;;;7.299999999999998;;
15557;SDS011;7880;50.110;9.372;2022-08-25T08:26:40;7.630769230769232;;;6.799999999999998;;
15557;SDS011;7880;50.110;9.372;2022-08-25T08:31:38;9.36153846153846;;;6.669230769230771;;
15557;SDS011;7880;50.110;9.372;2022-08-25T08:36:44;8.599999999999998;;;7.0;;
15557;SDS011;7880;50.110;9.372;2022-08-25T08:42:23;7.0;;;6.230769230769231;;
15557;SDS011;7880;50.110;9.372;2022-08-25T08:47:23;7.799999999999998;;;6.200000000000002;;
15557;SDS011;7880;50.110;9.372;2022-08-25T08:52:25;7.16153846153846;;;5.930769230769231;;
15557;SDS011;7880;50.110;9.372;2022-08-25T08:57:27;7.330769230769231;;;5.8307692307692305;;
15557;SDS011;7880;50.110;9.372;2022-08-25T09:02:32;5.89230769230769;;;5.361538461538462;;
15557;SDS011;7880;50.110;9.372;2022-08-25T09:07:40;9.576923076923078;;;6.13846153846154;;
15557;SDS011;7880;50.110;9.372;2022-08-25T09:12:42;7.1307692307692285;;;5.269230769230768;;
15557;SDS011;7880;50.110;9.372;2022-08-25T09:17:50;6.238461538461536;;;5.3307692307692305;;
15557;SDS011;7880;50.110;9.372;2022-08-25T09:22:51;7.684615384615384;;;4.86153846153846;;
15557;SDS011;7880;50.110;9.372;2022-08-25T09:28:00;6.4;;;5.299999999999999;;
15557;SDS011;7880;50.110;9.372;2022-08-25T09:33:07;6.93076923076923;;;5.561538461538462;;
15557;SDS011;7880;50.110;9.372;2022-08-25T09:38:05;5.9923076923076914;;;5.461538461538459;;
15557;SDS011;7880;50.110;9.372;2022-08-25T09:43:18;6.030769230769229;;;5.43076923076923;;
15557;SDS011;7880;50.110;9.372;2022-08-25T09:48:19;11.238461538461536;;;6.200000000000002;;
15557;SDS011;7880;50.110;9.372;2022-08-25T09:53:17;6.799999999999998;;;5.43076923076923;;
15557;SDS011;7880;50.110;9.372;2022-08-25T09:58:19;7.561538461538462;;;6.230769230769231;;
15557;SDS011;7880;50.110;9.372;2022-08-25T10:03:21;9.138461538461538;;;6.1;;
15557;SDS011;7880;50.110;9.372;2022-08-25T10:08:29;9.446153846153846;;;6.030769230769229;;
15557;SDS011;7880;50.110;9.372;2022-08-25T10:13:39;6.63846153846154;;;5.700000000000002;;
15557;SDS011;7880;50.110;9.372;2022-08-25T10:18:36;6.799999999999998;;;6.1;;
15557;SDS011;7880;50.110;9.372;2022-08-25T10:23:46;6.769230769230769;;;5.6;;
15557;SDS011;7880;50.110;9.372;2022-08-25T10:28:49;7.36153846153846;;;5.761538461538463;;
15557;SDS011;7880;50.110;9.372;2022-08-25T10:33:56;10.507692307692308;;;6.200000000000002;;
15557;SDS011;7880;50.110;9.372;2022-08-25T10:38:56;7.169230769230769;;;5.9;;
15557;SDS011;7880;50.110;9.372;2022-08-25T10:44:01;5.9;;;5.299999999999999;;
15557;SDS011;7880;50.110;9.372;2022-08-25T10:49:03;8.676923076923076;;;6.13846153846154;;
15557;SDS011;7880;50.110;9.372;2022-08-25T10:54:14;7.038461538461541;;;6.038461538461541;;
15557;SDS011;7880;50.110;9.372;2022-08-25T10:59:18;7.66153846153846;;;5.1000000000000005;;
15557;SDS011;7880;50.110;9.372;2022-08-25T11:04:18;6.700000000000002;;;6.0;;
15557;SDS011;7880;50.110;9.372;2022-08-25T11:09:22;7.200000000000002;;;5.03076923076923;;
15557;SDS011;7880;50.110;9.372;2022-08-25T11:14:25;5.8307692307692305;;;4.799999999999999;;
15557;SDS011;7880;50.110;9.372;2022-08-25T11:19:34;6.738461538461536;;;4.830769230769231;;
15557;SDS011;7880;50.110;9.372;2022-08-25T11:24:41;4.5;;;4.1000000000000005;;
15557;SDS011;7880;50.110;9.372;2022-08-25T11:29:38;5.06923076923077;;;4.6692307692307695;;
15557;SDS011;7880;50.110;9.372;2022-08-25T11:34:49;6.261538461538464;;;5.261538461538462;;
15557;SDS011;7880;50.110;9.372;2022-08-25T11:41:02;5.6692307692307695;;;5.1000000000000005;;
15557;SDS011;7880;50.110;9.372;2022-08-25T11:45:53;4.730769230769231;;;4.33076923076923;;
15557;SDS011;7880;50.110;9.372;2022-08-25T11:50:54;4.96923076923077;;;4.0307692307692315;;
15557;SDS011;7880;50.110;9.372;2022-08-25T11:56:02;4.6000000000000005;;;4.200000000000001;;
15557;SDS011;7880;50.110;9.372;2022-08-25T12:01:02;4.33076923076923;;;3.93076923076923;;
15557;SDS011;7880;50.110;9.372;2022-08-25T12:06:15;4.799999999999999;;;4.3999999999999995;;
15557;SDS011;7880;50.110;9.372;2022-08-25T12:11:13;4.730769230769231;;;4.299999999999999;;
15557;SDS011;7880;50.110;9.372;2022-08-25T12:16:35;5.1000000000000005;;;4.6000000000000005;;
15557;SDS011;7880;50.110;9.372;2022-08-25T12:21:30;6.1;;;4.730769230769231;;
15557;SDS011;7880;50.110;9.372;2022-08-25T12:24:51;6.876923076923076;;;5.061538461538461;;
15557;SDS011;7880;50.110;9.372;2022-08-25T12:29:57;5.869230769230768;;;5.269230769230769;;
15557;SDS011;7880;50.110;9.372;2022-08-25T12:35:09;4.8999999999999995;;;4.5;;
15557;SDS011;7880;50.110;9.372;2022-08-25T12:40:09;5.8307692307692305;;;4.161538461538461;;
15557;SDS011;7880;50.110;9.372;2022-08-25T12:45:30;5.6;;;5.1000000000000005;;
15557;SDS011;7880;50.110;9.372;2022-08-25T12:50:34;5.230769230769231;;;4.730769230769231;;
15557;SDS011;7880;50.110;9.372;2022-08-25T12:55:19;4.630769230769232;;;4.23076923076923;;
15557;SDS011;7880;50.110;9.372;2022-08-25T13:00:26;6.16153846153846;;;5.453846153846153;;
15557;SDS011;7880;50.110;9.372;2022-08-25T13:05:38;5.6692307692307695;;;5.06923076923077;;
15557;SDS011;7880;50.110;9.372;2022-08-25T13:10:47;7.546153846153843;;;5.4;;
15557;SDS011;7880;50.110;9.372;2022-08-25T13:15:41;5.130769230769232;;;4.33076923076923;;
15557;SDS011;7880;50.110;9.372;2022-08-25T13:21:01;8.26923076923077;;;5.5;;
15557;SDS011;7880;50.110;9.372;2022-08-25T13:25:48;4.138461538461539;;;3.600000000000001;;
15557;SDS011;7880;50.110;9.372;2022-08-25T13:30:56;3.2;;;2.899999999999999;;
15557;SDS011;7880;50.110;9.372;2022-08-25T13:37:26;2.899999999999999;;;2.3999999999999995;;
15557;SDS011;7880;50.110;9.372;2022-08-25T13:42:13;4.93076923076923;;;3.169230769230769;;
15557;SDS011;7880;50.110;9.372;2022-08-25T13:47:14;3.6692307692307695;;;3.0;;
15557;SDS011;7880;50.110;9.372;2022-08-25T13:52:16;3.899999999999999;;;3.399999999999999;;
15557;SDS011;7880;50.110;9.372;2022-08-25T13:57:18;3.6692307692307695;;;3.369230769230768;;
15557;SDS011;7880;50.110;9.372;2022-08-25T14:02:40;4.16923076923077;;;3.7692307692307705;;
15557;SDS011;7880;50.110;9.372;2022-08-25T14:07:28;3.561538461538462;;;3.261538461538461;;
15557;SDS011;7880;50.110;9.372;2022-08-25T14:12:33;7.961538461538461;;;4.453846153846154;;
15557;SDS011;7880;50.110;9.372;2022-08-25T14:17:36;6.269230769230769;;;3.7307692307692295;;
15557;SDS011;7880;50.110;9.372;2022-08-25T14:22:41;6.238461538461536;;;4.869230769230769;;
15557;SDS011;7880;50.110;9.372;2022-08-25T14:27:53;5.0;;;4.0307692307692315;;
15557;SDS011;7880;50.110;9.372;2022-08-25T14:32:49;4.438461538461538;;;4.06923076923077;;
15557;SDS011;7880;50.110;9.372;2022-08-25T14:37:55;6.86153846153846;;;4.130769230769232;;
15557;SDS011;7880;50.110;9.372;2022-08-25T14:43:00;4.16923076923077;;;3.7692307692307705;;
15557;SDS011;7880;50.110;9.372;2022-08-25T14:48:05;4.453846153846154;;;4.0;;
15557;SDS011;7880;50.110;9.372;2022-08-25T14:53:09;4.730769230769231;;;3.93076923076923;;
15557;SDS011;7880;50.110;9.372;2022-08-25T14:58:13;4.892307692307691;;;4.06923076923077;;
15557;SDS011;7880;50.110;9.372;2022-08-25T15:03:25;4.299999999999999;;;3.899999999999999;;
15557;SDS011;7880;50.110;9.372;2022-08-25T15:09:28;5.792307692307693;;;4.0;;
15557;SDS011;7880;50.110;9.372;2022-08-25T15:14:15;4.569230769230769;;;4.06923076923077;;
15557;SDS011;7880;50.110;9.372;2022-08-25T15:19:14;4.200000000000001;;;3.7999999999999994;;
15557;SDS011;7880;50.110;9.372;2022-08-25T15:24:17;5.06923076923077;;;4.06923076923077;;
15557;SDS011;7880;50.110;9.372;2022-08-25T15:29:20;5.1000000000000005;;;4.6000000000000005;;
15557;SDS011;7880;50.110;9.372;2022-08-25T15:34:33;8.969230769230771;;;5.4;;
15557;SDS011;7880;50.110;9.372;2022-08-25T15:39:29;6.769230769230769;;;5.200000000000001;;
15557;SDS011;7880;50.110;9.372;2022-08-25T15:44:33;8.815384615384614;;;6.93076923076923;;
15557;SDS011;7880;50.110;9.372;2022-08-25T15:49:37;5.153846153846154;;;4.538461538461539;;
15557;SDS011;7880;50.110;9.372;2022-08-25T15:54:41;6.038461538461541;;;3.869230769230768;;
15557;SDS011;7880;50.110;9.372;2022-08-25T15:59:44;4.5;;;4.1000000000000005;;
15557;SDS011;7880;50.110;9.372;2022-08-25T16:04:50;6.038461538461541;;;4.0;;
15557;SDS011;7880;50.110;9.372;2022-08-25T16:09:53;4.323076923076924;;;3.600000000000001;;
15557;SDS011;7880;50.110;9.372;2022-08-25T16:14:56;9.36923076923077;;;5.9;;
15557;SDS011;7880;50.110;9.372;2022-08-25T16:20:01;5.200000000000001;;;4.700000000000001;;
15557;SDS011;7880;50.110;9.372;2022-08-25T16:25:09;4.06923076923077;;;3.7692307692307705;;
15557;SDS011;7880;50.110;9.372;2022-08-25T16:30:12;8.930769230769233;;;4.200000000000001;;
15557;SDS011;7880;50.110;9.372;2022-08-25T16:35:16;4.869230769230769;;;4.200000000000001;;
15557;SDS011;7880;50.110;9.372;2022-08-25T16:40:22;6.907692307692309;;;4.200000000000001;;
15557;SDS011;7880;50.110;9.372;2022-08-25T16:45:22;4.538461538461538;;;4.06923076923077;;
15557;SDS011;7880;50.110;9.372;2022-08-25T16:50:29;4.730769230769231;;;4.23076923076923;;
15557;SDS011;7880;50.110;9.372;2022-08-25T16:55:36;4.200000000000001;;;3.7999999999999994;;
15557;SDS011;7880;50.110;9.372;2022-08-25T17:00:37;6.4;;;4.6692307692307695;;
15557;SDS011;7880;50.110;9.372;2022-08-25T17:05:41;6.323076923076922;;;3.8307692307692305;;
15557;SDS011;7880;50.110;9.372;2022-08-25T17:10:43;6.56923076923077;;;4.23076923076923;;
15557;SDS011;7880;50.110;9.372;2022-08-25T17:15:47;5.446153846153847;;;4.5538461538461545;;
15557;SDS011;7880;50.110;9.372;2022-08-25T17:20:56;7.169230769230769;;;4.200000000000001;;
15557;SDS011;7880;50.110;9.372;2022-08-25T17:25:54;4.299999999999999;;;3.899999999999999;;
15557;SDS011;7880;50.110;9.372;2022-08-25T17:31:07;4.96923076923077;;;4.299999999999999;;
15557;SDS011;7880;50.110;9.372;2022-08-25T17:36:11;4.869230769230769;;;4.130769230769232;;
15557;SDS011;7880;50.110;9.372;2022-08-25T17:41:23;4.5;;;4.1000000000000005;;
15557;SDS011;7880;50.110;9.372;2022-08-25T17:46:20;7.307692307692306;;;4.0;;
15557;SDS011;7880;50.110;9.372;2022-08-25T17:51:23;6.900000000000001;;;4.130769230769232;;
15557;SDS011;7880;50.110;9.372;2022-08-25T17:56:27;10.415384615384616;;;4.2384615384615385;;
15557;SDS011;7880;50.110;9.372;2022-08-25T18:01:32;4.0307692307692315;;;3.630769230769232;;
15557;SDS011;7880;50.110;9.372;2022-08-25T18:06:39;4.799999999999999;;;3.7307692307692295;;
15557;SDS011;7880;50.110;9.372;2022-08-25T18:11:42;5.138461538461538;;;4.200000000000001;;
15557;SDS011;7880;50.110;9.372;2022-08-25T18:16:46;8.307692307692308;;;4.16923076923077;;
15557;SDS011;7880;50.110;9.372;2022-08-25T18:21:50;14.830769230769228;;;5.130769230769232;;
15557;SDS011;7880;50.110;9.372;2022-08-25T18:26:53;9.069230769230769;;;4.6692307692307695;;
15557;SDS011;7880;50.110;9.372;2022-08-25T18:31:58;4.761538461538462;;;3.8615384615384616;;
15557;SDS011;7880;50.110;9.372;2022-08-25T18:40:21;8.238461538461536;;;4.530769230769231;;
15557;SDS011;7880;50.110;9.372;2022-08-25T18:45:01;7.576923076923077;;;4.769230769230769;;
15557;SDS011;7880;50.110;9.372;2022-08-25T18:50:07;9.476923076923075;;;4.299999999999999;;
15557;SDS011;7880;50.110;9.372;2022-08-25T18:55:17;7.5;;;4.6000000000000005;;
15557;SDS011;7880;50.110;9.372;2022-08-25T19:00:16;7.530769230769229;;;4.569230769230769;;
15557;SDS011;7880;50.110;9.372;2022-08-25T19:05:20;5.461538461538459;;;4.430769230769231;;
15557;SDS011;7880;50.110;9.372;2022-08-25T19:10:26;6.338461538461538;;;4.3999999999999995;;
15557;SDS011;7880;50.110;9.372;2022-08-25T19:15:30;4.799999999999999;;;4.299999999999999;;
15557;SDS011;7880;50.110;9.372;2022-08-25T19:20:30;7.938461538461538;;;4.96923076923077;;
15557;SDS011;7880;50.110;9.372;2022-08-25T19:25:36;8.607692307692309;;;5.06923076923077;;
15557;SDS011;7880;50.110;9.372;2022-08-25T19:30:41;6.423076923076923;;;4.93076923076923;;
15557;SDS011;7880;50.110;9.372;2022-08-25T19:35:48;5.392307692307692;;;4.430769230769231;;
15557;SDS011;7880;50.110;9.372;2022-08-25T19:40:49;6.838461538461539;;;4.16923076923077;;
15557;SDS011;7880;50.110;9.372;2022-08-25T19:45:56;6.438461538461538;;;4.369230769230769;;
15557;SDS011;7880;50.110;9.372;2022-08-25T19:50:58;5.761538461538463;;;4.830769230769231;;
15557;SDS011;7880;50.110;9.372;2022-08-25T19:56:10;5.3307692307692305;;;4.830769230769231;;
15557;SDS011;7880;50.110;9.372;2022-08-25T20:01:08;6.36153846153846;;;4.830769230769231;;
15557;SDS011;7880;50.110;9.372;2022-08-25T20:06:10;5.299999999999999;;;4.799999999999999;;
15557;SDS011;7880;50.110;9.372;2022-08-25T20:11:16;6.56923076923077;;;4.769230769230769;;
15557;SDS011;7880;50.110;9.372;2022-08-25T20:16:18;4.6692307692307695;;;4.1000000000000005;;
15557;SDS011;7880;50.110;9.372;2022-08-25T20:21:23;9.376923076923076;;;4.799999999999999;;
15557;SDS011;7880;50.110;9.372;2022-08-25T20:26:28;5.1692307692307695;;;4.6692307692307695;;
15557;SDS011;7880;50.110;9.372;2022-08-25T20:31:31;5.130769230769232;;;4.630769230769232;;
15557;SDS011;7880;50.110;9.372;2022-08-25T20:36:46;5.0;;;4.299999999999999;;
15557;SDS011;7880;50.110;9.372;2022-08-25T20:41:39;5.038461538461539;;;4.538461538461538;;
15557;SDS011;7880;50.110;9.372;2022-08-25T20:46:43;5.6692307692307695;;;4.700000000000001;;
15557;SDS011;7880;50.110;9.372;2022-08-25T20:51:46;7.438461538461538;;;4.3999999999999995;;
15557;SDS011;7880;50.110;9.372;2022-08-25T20:56:51;6.869230769230768;;;5.03076923076923;;
15557;SDS011;7880;50.110;9.372;2022-08-25T21:01:54;5.361538461538462;;;4.861538461538462;;
15557;SDS011;7880;50.110;9.372;2022-08-25T21:07:07;9.099999999999998;;;4.830769230769231;;
15557;SDS011;7880;50.110;9.372;2022-08-25T21:12:09;5.4;;;4.8999999999999995;;
15557;SDS011;7880;50.110;9.372;2022-08-25T21:17:10;8.976923076923077;;;4.769230769230769;;
15557;SDS011;7880;50.110;9.372;2022-08-25T21:22:15;4.661538461538462;;;4.23076923076923;;
15557;SDS011;7880;50.110;9.372;2022-08-25T21:27:19;6.130769230769232;;;4.723076923076923;;
15557;SDS011;7880;50.110;9.372;2022-08-25T21:32:23;6.461538461538459;;;4.3999999999999995;;
15557;SDS011;7880;50.110;9.372;2022-08-25T21:37:40;8.169230769230769;;;4.93076923076923;;
15557;SDS011;7880;50.110;9.372;2022-08-25T21:42:33;12.046153846153846;;;5.6;;
15557;SDS011;7880;50.110;9.372;2022-08-25T21:47:41;7.60769230769231;;;4.96923076923077;;
15557;SDS011;7880;50.110;9.372;2022-08-25T21:52:44;6.561538461538461;;;5.0;;
15557;SDS011;7880;50.110;9.372;2022-08-25T21:57:48;6.030769230769229;;;5.1000000000000005;;
15557;SDS011;7880;50.110;9.372;2022-08-25T22:02:53;5.0;;;4.299999999999999;;
15557;SDS011;7880;50.110;9.372;2022-08-25T22:07:56;6.407692307692309;;;4.299999999999999;;
15557;SDS011;7880;50.110;9.372;2022-08-25T22:13:00;7.0;;;5.230769230769231;;
15557;SDS011;7880;50.110;9.372;2022-08-25T22:18:03;6.030769230769229;;;5.03076923076923;;
15557;SDS011;7880;50.110;9.372;2022-08-25T22:23:06;5.615384615384614;;;5.076923076923078;;
15557;SDS011;7880;50.110;9.372;2022-08-25T22:28:12;9.069230769230769;;;5.269230769230769;;
15557;SDS011;7880;50.110;9.372;2022-08-25T22:33:14;5.969230769230771;;;5.369230769230768;;
15557;SDS011;7880;50.110;9.372;2022-08-25T22:37:23;8.038461538461538;;;5.6;;
15557;SDS011;7880;50.110;9.372;2022-08-25T22:42:35;6.030769230769229;;;5.43076923076923;;
15557;SDS011;7880;50.110;9.372;2022-08-25T22:47:32;6.56923076923077;;;5.130769230769232;;
15557;SDS011;7880;50.110;9.372;2022-08-25T22:52:37;6.0;;;5.4;;
15557;SDS011;7880;50.110;9.372;2022-08-25T22:57:49;6.43076923076923;;;5.130769230769232;;